createdAt,value
2022-09-06T00:01:33.729Z,5.22
2022-09-06T00:04:00.317Z,5.07
2022-09-06T00:06:26.843Z,5.40
2022-09-06T00:08:53.342Z,5.18
2022-09-06T00:11:20.069Z,5.55
2022-09-06T00:13:47.491Z,5.47
2022-09-06T00:16:28.388Z,5.70
2022-09-06T00:18:57.056Z,5.90
2022-09-06T00:21:27.159Z,5.63
2022-09-06T00:23:54.180Z,6.10
2022-09-06T00:26:22.392Z,6.07
2022-09-06T00:28:49.486Z,6.32
2022-09-06T00:31:22.926Z,6.65
2022-09-06T00:33:50.358Z,7.03
2022-09-06T00:36:17.982Z,7.00
2022-09-06T00:38:45.067Z,6.90
2022-09-06T00:41:13.544Z,7.38
2022-09-06T00:43:40.971Z,7.00
2022-09-06T00:46:10.632Z,7.25
2022-09-06T00:48:39.308Z,7.07
2022-09-06T00:51:09.456Z,7.20
2022-09-06T00:53:36.172Z,6.90
2022-09-06T00:56:03.257Z,7.07
2022-09-06T00:58:29.769Z,7.82
2022-09-06T01:00:56.938Z,7.18
2022-09-06T01:03:25.047Z,7.35
2022-09-06T01:05:57.379Z,7.15
2022-09-06T01:08:51.141Z,6.70
2022-09-06T01:11:40.972Z,7.20
2022-09-06T01:14:16.902Z,7.38
2022-09-06T01:17:06.298Z,7.50
2022-09-06T01:22:33.399Z,7.47
2022-09-06T01:25:21.823Z,8.05
2022-09-06T01:28:11.521Z,7.25
2022-09-06T01:30:45.346Z,7.57
2022-09-06T01:33:19.634Z,7.70
2022-09-06T01:35:58.115Z,8.13
2022-09-06T01:38:24.897Z,7.53
2022-09-06T01:40:51.416Z,7.68
2022-09-06T01:43:27.328Z,7.80
2022-09-06T01:46:05.645Z,7.72
2022-09-06T01:48:53.058Z,7.60
2022-09-06T01:51:28.448Z,7.75
2022-09-06T01:54:05.315Z,7.75
2022-09-06T01:56:52.450Z,7.65
2022-09-06T01:59:39.296Z,7.53
2022-09-06T02:02:25.609Z,7.43
2022-09-06T02:05:15.932Z,7.22
2022-09-06T02:07:44.668Z,7.47
2022-09-06T02:10:18.478Z,7.05
2022-09-06T02:12:48.294Z,7.63
2022-09-06T02:15:19.640Z,7.60
2022-09-06T02:17:57.984Z,7.43
2022-09-06T02:20:30.738Z,7.50
2022-09-06T02:23:01.635Z,7.57
2022-09-06T02:25:45.256Z,7.55
2022-09-06T02:28:11.931Z,7.60
2022-09-06T02:30:44.569Z,7.45
2022-09-06T02:33:18.125Z,7.50
2022-09-06T02:35:47.432Z,8.00
2022-09-06T02:38:14.440Z,7.97
2022-09-06T02:40:42.954Z,8.48
2022-09-06T02:43:09.471Z,7.70
2022-09-06T02:45:36.026Z,7.80
2022-09-06T02:48:02.739Z,8.15
2022-09-06T02:50:29.223Z,8.07
2022-09-06T02:53:10.133Z,7.60
2022-09-06T02:55:37.737Z,8.10
2022-09-06T02:58:06.512Z,8.10
2022-09-06T03:00:33.460Z,7.88
2022-09-06T03:03:00.062Z,8.07
2022-09-06T03:05:27.733Z,7.78
2022-09-06T03:07:54.696Z,8.10
2022-09-06T03:10:22.395Z,8.05
2022-09-06T03:12:49.066Z,8.27
2022-09-06T03:15:16.531Z,8.07
2022-09-06T03:17:43.620Z,8.32
2022-09-06T03:20:11.569Z,8.77
2022-09-06T03:22:39.335Z,8.25
2022-09-06T03:25:10.275Z,9.10
2022-09-06T03:27:37.207Z,8.55
2022-09-06T03:30:05.968Z,9.13
2022-09-06T03:32:32.864Z,8.52
2022-09-06T03:34:59.636Z,8.40
2022-09-06T03:37:26.443Z,9.05
2022-09-06T03:39:53.079Z,9.07
2022-09-06T03:42:19.652Z,8.75
2022-09-06T03:44:46.205Z,8.70
2022-09-06T03:47:13.142Z,8.25
2022-09-06T03:49:41.223Z,8.75
2022-09-06T03:52:07.750Z,8.77
2022-09-06T03:54:34.351Z,9.10
2022-09-06T03:57:00.863Z,8.95
2022-09-06T03:59:27.353Z,8.68
2022-09-06T04:01:53.913Z,9.02
2022-09-06T04:04:20.473Z,8.55
2022-09-06T04:06:47.020Z,9.15
2022-09-06T04:09:13.535Z,9.52
2022-09-06T04:11:42.142Z,8.48
2022-09-06T04:14:10.430Z,9.32
2022-09-06T04:16:36.997Z,8.52
2022-09-06T04:19:04.469Z,8.68
2022-09-06T04:21:31.322Z,8.70
2022-09-06T04:23:57.852Z,8.68
2022-09-06T04:26:24.498Z,9.75
2022-09-06T04:28:50.981Z,9.77
2022-09-06T04:31:17.492Z,8.93
2022-09-06T04:33:43.985Z,9.57
2022-09-06T04:36:11.531Z,10.13
2022-09-06T04:38:40.739Z,10.63
2022-09-06T04:41:08.409Z,10.18
2022-09-06T04:43:35.188Z,10.07
2022-09-06T04:46:11.373Z,10.23
2022-09-06T04:48:37.903Z,10.07
2022-09-06T04:51:04.531Z,9.73
2022-09-06T04:53:31.025Z,10.23
2022-09-06T04:55:58.733Z,9.48
2022-09-06T04:58:25.558Z,9.90
2022-09-06T05:00:52.184Z,9.80
2022-09-06T05:03:18.742Z,10.55
2022-09-06T05:05:45.247Z,10.43
2022-09-06T05:08:11.943Z,10.25
2022-09-06T05:10:38.460Z,10.48
2022-09-06T05:13:04.960Z,11.18
2022-09-06T05:15:31.776Z,11.13
2022-09-06T05:18:03.824Z,11.13
2022-09-06T05:20:31.104Z,11.13
2022-09-06T05:22:57.632Z,11.30
2022-09-06T05:25:24.202Z,10.60
2022-09-06T05:27:50.818Z,10.95
2022-09-06T05:30:18.310Z,11.57
2022-09-06T05:32:44.897Z,11.15
2022-09-06T05:35:11.395Z,11.07
2022-09-06T05:37:37.897Z,11.85
2022-09-06T05:40:04.749Z,11.73
2022-09-06T05:42:31.302Z,12.10
2022-09-06T05:44:58.034Z,12.40
2022-09-06T05:47:24.600Z,11.98
2022-09-06T05:49:51.999Z,12.43
2022-09-06T05:52:19.763Z,12.20
2022-09-06T05:54:46.264Z,12.43
2022-09-06T05:57:12.793Z,12.35
2022-09-06T05:59:39.308Z,12.70
2022-09-06T06:02:07.530Z,11.93
2022-09-06T06:04:34.410Z,12.77
2022-09-06T06:07:01.539Z,13.15
2022-09-06T06:09:28.103Z,13.07
2022-09-06T06:11:54.593Z,13.57
2022-09-06T06:14:21.124Z,13.00
2022-09-06T06:16:47.677Z,13.07
2022-09-06T06:19:15.294Z,13.15
2022-09-06T06:21:43.564Z,12.80
2022-09-06T06:24:10.187Z,12.88
2022-09-06T06:26:37.355Z,13.02
2022-09-06T06:29:05.965Z,13.45
2022-09-06T06:31:33.737Z,13.25
2022-09-06T06:34:03.091Z,13.43
2022-09-06T06:36:31.529Z,12.75
2022-09-06T06:38:58.434Z,13.43
2022-09-06T06:41:27.202Z,13.25
2022-09-06T06:43:58.268Z,12.77
2022-09-06T06:46:27.163Z,12.63
2022-09-06T06:48:56.785Z,12.52
2022-09-06T06:51:29.131Z,12.77
2022-09-06T06:53:58.559Z,13.05
2022-09-06T06:56:34.210Z,13.10
2022-09-06T06:59:04.025Z,13.02
2022-09-06T07:01:32.967Z,12.65
2022-09-06T07:04:00.162Z,13.10
2022-09-06T07:09:18.812Z,13.02
2022-09-06T07:11:46.355Z,12.35
2022-09-06T07:14:12.853Z,12.88
2022-09-06T07:16:39.525Z,13.52
2022-09-06T07:19:06.437Z,13.30
2022-09-06T07:26:36.265Z,13.93
2022-09-06T07:29:04.551Z,13.85
2022-09-06T07:34:19.273Z,14.02
2022-09-06T07:36:45.827Z,13.15
2022-09-06T07:39:12.347Z,14.13
2022-09-06T07:41:38.921Z,14.27
2022-09-06T07:44:05.443Z,13.48
2022-09-06T07:46:32.015Z,13.80
2022-09-06T07:48:58.623Z,13.40
2022-09-06T07:51:25.243Z,12.45
2022-09-06T07:54:07.080Z,12.30
2022-09-06T07:56:40.149Z,10.98
2022-09-06T07:59:06.865Z,11.00
2022-09-06T08:01:38.568Z,10.82
2022-09-06T08:04:10.166Z,10.73
2022-09-06T08:09:25.768Z,10.70
2022-09-06T08:11:52.728Z,10.18
2022-09-06T08:14:19.881Z,11.05
2022-09-06T08:16:46.458Z,10.30
2022-09-06T08:19:12.982Z,10.35
2022-09-06T08:21:39.798Z,9.20
2022-09-06T08:24:09.556Z,9.85
2022-09-06T08:26:40.303Z,9.90
2022-09-06T08:29:08.826Z,9.43
2022-09-06T08:31:38.423Z,8.93
2022-09-06T08:34:05.103Z,9.07
2022-09-06T08:36:32.919Z,9.18
2022-09-06T08:39:01.108Z,8.27
2022-09-06T08:41:30.899Z,9.20
2022-09-06T08:46:57.403Z,8.35
2022-09-06T08:49:27.030Z,8.60
2022-09-06T08:52:41.770Z,8.00
2022-09-06T08:55:38.789Z,7.65
2022-09-06T08:58:24.295Z,7.43
2022-09-06T09:01:00.749Z,6.03
2022-09-06T09:03:39.000Z,5.80
2022-09-06T09:06:07.694Z,5.78
2022-09-06T09:08:46.332Z,5.30
2022-09-06T09:11:18.534Z,6.05
2022-09-06T09:13:59.506Z,5.93
2022-09-06T09:16:26.460Z,5.63
2022-09-06T09:18:57.251Z,5.82
2022-09-06T09:21:30.197Z,6.00
2022-09-06T09:24:01.847Z,5.82
2022-09-06T09:26:41.216Z,6.18
2022-09-06T09:29:10.759Z,6.20
2022-09-06T09:31:42.862Z,5.97
2022-09-06T09:34:14.398Z,6.22
2022-09-06T09:36:41.044Z,6.00
2022-09-06T09:39:11.874Z,6.30
2022-09-06T09:41:42.937Z,6.28
2022-09-06T09:44:16.235Z,5.97
2022-09-06T09:46:42.955Z,6.38
2022-09-06T09:49:21.657Z,6.90
2022-09-06T09:52:12.632Z,6.20
2022-09-06T09:54:42.414Z,6.57
2022-09-06T09:57:17.540Z,6.80
2022-09-06T09:59:47.711Z,6.53
2022-09-06T10:02:28.303Z,5.90
2022-09-06T10:05:04.091Z,6.10
2022-09-06T10:07:32.551Z,6.15
2022-09-06T10:10:10.708Z,6.38
2022-09-06T10:12:39.706Z,6.10
2022-09-06T10:15:08.945Z,6.72
2022-09-06T10:17:53.360Z,6.47
2022-09-06T10:20:24.195Z,6.68
2022-09-06T10:23:01.570Z,6.70
2022-09-06T10:25:43.971Z,6.85
2022-09-06T10:28:45.959Z,7.15
2022-09-06T10:31:36.534Z,6.80
2022-09-06T10:34:08.892Z,7.13
2022-09-06T10:36:39.181Z,7.00
2022-09-06T10:39:30.183Z,6.88
2022-09-06T10:42:05.741Z,6.90
2022-09-06T10:44:53.986Z,7.13
2022-09-06T10:47:23.258Z,7.40
2022-09-06T10:49:56.096Z,7.57
2022-09-06T10:52:28.307Z,7.80
2022-09-06T10:55:02.142Z,7.82
2022-09-06T11:00:47.248Z,8.27
2022-09-06T11:06:20.349Z,7.47
2022-09-06T11:09:09.678Z,7.65
2022-09-06T11:12:03.526Z,7.18
2022-09-06T11:14:30.277Z,8.02
2022-09-06T11:17:08.708Z,7.70
2022-09-06T11:19:54.457Z,7.60
2022-09-06T11:22:38.464Z,7.85
2022-09-06T11:25:10.862Z,7.55
2022-09-06T11:27:54.957Z,7.10
2022-09-06T11:30:25.563Z,7.78
2022-09-06T11:33:22.729Z,7.93
2022-09-06T11:35:49.599Z,7.40
2022-09-06T11:38:16.021Z,7.20
2022-09-06T11:40:46.039Z,7.30
2022-09-06T11:43:35.730Z,7.32
2022-09-06T11:46:02.262Z,8.20
2022-09-06T11:48:36.413Z,7.50
2022-09-06T11:51:10.654Z,7.05
2022-09-06T11:53:49.272Z,7.40
2022-09-06T11:56:31.216Z,6.60
2022-09-06T11:59:06.422Z,6.72
2022-09-06T12:01:36.671Z,6.88
2022-09-06T12:04:06.691Z,6.93
2022-09-06T12:09:27.652Z,6.70
2022-09-06T12:11:56.378Z,7.07
2022-09-06T12:14:39.438Z,6.07
2022-09-06T12:17:07.096Z,5.28
2022-09-06T12:19:52.204Z,5.50
2022-09-06T12:22:27.901Z,5.22
2022-09-06T12:24:59.788Z,5.25
2022-09-06T12:27:33.217Z,5.60
2022-09-06T12:30:11.709Z,5.28
2022-09-06T12:32:42.504Z,5.78
2022-09-06T12:38:18.408Z,5.63
2022-09-06T12:40:47.935Z,5.55
2022-09-06T12:43:17.406Z,5.28
2022-09-06T12:45:46.337Z,5.80
2022-09-06T12:48:59.217Z,4.93
2022-09-06T12:51:26.185Z,6.35
2022-09-06T12:53:54.061Z,5.80
2022-09-06T12:56:22.130Z,6.22
2022-09-06T12:58:48.802Z,6.47
2022-09-06T13:01:29.780Z,5.93
2022-09-06T13:04:03.209Z,6.05
2022-09-06T13:06:32.907Z,6.80
2022-09-06T13:09:00.447Z,5.70
2022-09-06T13:11:37.459Z,6.38
2022-09-06T13:14:14.506Z,5.97
2022-09-06T13:16:48.170Z,5.68
2022-09-06T13:19:17.552Z,5.40
2022-09-06T13:21:46.248Z,5.40
2022-09-06T13:24:37.487Z,5.68
2022-09-06T13:29:57.964Z,5.78
2022-09-06T13:32:26.618Z,5.60
2022-09-06T13:34:56.878Z,5.30
2022-09-06T13:37:26.521Z,5.20
2022-09-06T13:39:53.441Z,5.18
2022-09-06T13:42:35.811Z,4.63
2022-09-06T13:45:27.217Z,4.50
2022-09-06T13:48:03.383Z,4.97
2022-09-06T13:50:41.173Z,5.40
2022-09-06T13:53:07.695Z,4.85
2022-09-06T13:55:34.500Z,5.35
2022-09-06T13:58:00.981Z,5.68
2022-09-06T14:00:28.085Z,6.00
2022-09-06T14:02:55.592Z,6.10
2022-09-06T14:05:22.312Z,6.50
2022-09-06T14:07:48.811Z,6.40
2022-09-06T14:10:15.434Z,6.10
2022-09-06T14:12:41.992Z,6.57
2022-09-06T14:15:09.871Z,6.40
2022-09-06T14:17:36.513Z,5.90
2022-09-06T14:20:03.541Z,5.95
2022-09-06T14:22:30.235Z,6.53
2022-09-06T14:24:56.747Z,5.93
2022-09-06T14:27:23.715Z,5.78
2022-09-06T14:29:50.356Z,6.05
2022-09-06T14:32:21.841Z,5.75
2022-09-06T14:34:48.981Z,6.18
2022-09-06T14:37:15.535Z,5.43
2022-09-06T14:39:42.129Z,5.70
2022-09-06T14:42:08.984Z,5.82
2022-09-06T14:44:35.526Z,5.95
2022-09-06T14:47:02.136Z,6.15
2022-09-06T14:49:28.672Z,5.65
2022-09-06T14:51:56.344Z,5.28
2022-09-06T14:54:27.283Z,5.30
2022-09-06T14:56:55.950Z,5.22
2022-09-06T14:59:22.451Z,5.68
2022-09-06T15:01:49.053Z,5.25
2022-09-06T15:04:15.668Z,6.18
2022-09-06T15:07:00.920Z,5.60
2022-09-06T15:09:27.729Z,5.55
2022-09-06T15:11:54.366Z,5.50
2022-09-06T15:14:26.315Z,5.20
2022-09-06T15:16:56.631Z,5.10
2022-09-06T15:19:28.884Z,5.20
2022-09-06T15:21:57.177Z,5.50
2022-09-06T15:24:23.752Z,5.35
2022-09-06T15:26:50.333Z,5.45
2022-09-06T15:29:16.897Z,5.38
2022-09-06T15:31:43.403Z,5.13
2022-09-06T15:34:10.400Z,5.82
2022-09-06T15:36:37.601Z,5.70
2022-09-06T15:39:05.288Z,5.80
2022-09-06T15:41:35.561Z,5.95
2022-09-06T15:44:13.814Z,5.50
2022-09-06T15:46:50.966Z,5.47
2022-09-06T15:49:27.574Z,5.43
2022-09-06T15:51:55.348Z,5.00
2022-09-06T15:54:40.575Z,4.68
2022-09-06T15:57:07.930Z,4.78
2022-09-06T15:59:35.147Z,4.47
2022-09-06T16:02:01.989Z,4.70
2022-09-06T16:04:28.722Z,4.60
2022-09-06T16:06:56.680Z,4.70
2022-09-06T16:09:23.349Z,4.80
2022-09-06T16:11:49.909Z,4.70
2022-09-06T16:14:16.641Z,4.85
2022-09-06T16:16:43.821Z,4.65
2022-09-06T16:19:12.129Z,4.78
2022-09-06T16:21:40.266Z,5.10
2022-09-06T16:24:09.239Z,4.93
2022-09-06T16:26:38.284Z,4.72
2022-09-06T16:29:06.939Z,5.25
2022-09-06T16:31:39.317Z,5.03
2022-09-06T16:34:06.595Z,5.05
2022-09-06T16:36:33.103Z,5.25
2022-09-06T16:39:00.049Z,4.88
2022-09-06T16:41:42.591Z,5.50
2022-09-06T16:44:15.942Z,5.32
2022-09-06T16:46:43.792Z,5.00
2022-09-06T16:49:10.320Z,5.00
2022-09-06T16:51:36.853Z,5.40
2022-09-06T16:54:03.800Z,5.40
2022-09-06T16:56:33.426Z,5.50
2022-09-06T16:59:02.331Z,5.43
2022-09-06T17:01:31.190Z,5.15
2022-09-06T17:03:59.124Z,5.40
2022-09-06T17:06:25.688Z,5.40
2022-09-06T17:08:52.265Z,4.85
2022-09-06T17:11:20.505Z,5.57
2022-09-06T17:13:49.296Z,5.47
2022-09-06T17:16:35.175Z,5.50
2022-09-06T17:19:02.201Z,5.78
2022-09-06T17:21:29.737Z,6.38
2022-09-06T17:23:58.641Z,5.72
2022-09-06T17:26:25.160Z,6.10
2022-09-06T17:28:51.697Z,6.30
2022-09-06T17:31:25.056Z,6.05
2022-09-06T17:33:53.142Z,5.95
2022-09-06T17:36:25.518Z,6.20
2022-09-06T17:38:53.874Z,6.00
2022-09-06T17:41:27.307Z,6.70
2022-09-06T17:43:54.597Z,7.00
2022-09-06T17:46:28.959Z,6.38
2022-09-06T17:48:56.408Z,7.30
2022-09-06T17:51:24.421Z,7.25
2022-09-06T17:53:52.102Z,6.75
2022-09-06T17:56:19.519Z,6.50
2022-09-06T17:58:58.503Z,6.60
2022-09-06T18:01:26.741Z,6.18
2022-09-06T18:03:53.371Z,6.28
2022-09-06T18:06:24.718Z,6.30
2022-09-06T18:08:54.529Z,6.07
2022-09-06T18:11:26.914Z,6.25
2022-09-06T18:14:02.360Z,6.78
2022-09-06T18:16:31.392Z,6.85
2022-09-06T18:19:00.189Z,6.70
2022-09-06T18:21:29.085Z,6.93
2022-09-06T18:23:56.025Z,6.68
2022-09-06T18:26:23.009Z,6.00
2022-09-06T18:28:50.089Z,6.28
2022-09-06T18:31:19.342Z,6.18
2022-09-06T18:33:45.962Z,5.40
2022-09-06T18:36:15.441Z,5.63
2022-09-06T18:38:45.489Z,6.07
2022-09-06T18:41:33.582Z,6.25
2022-09-06T18:44:03.060Z,6.30
2022-09-06T18:46:31.749Z,6.38
2022-09-06T18:48:58.476Z,6.35
2022-09-06T18:51:25.863Z,6.90
2022-09-06T18:53:52.853Z,7.60
2022-09-06T18:56:20.101Z,7.15
2022-09-06T18:58:46.901Z,7.90
2022-09-06T19:01:17.876Z,7.82
2022-09-06T19:06:16.556Z,7.50
2022-09-06T19:08:43.715Z,7.72
2022-09-06T19:11:12.521Z,7.75
2022-09-06T19:13:41.432Z,7.40
2022-09-06T19:16:09.693Z,7.78
2022-09-06T19:18:37.301Z,7.70
2022-09-06T19:21:06.501Z,7.43
2022-09-06T19:23:35.027Z,7.88
2022-09-06T19:26:04.608Z,8.10
2022-09-06T19:28:31.794Z,7.68
2022-09-06T19:30:58.653Z,7.22
2022-09-06T19:33:25.744Z,7.32
2022-09-06T19:36:10.504Z,7.03
2022-09-06T19:38:59.574Z,7.35
2022-09-06T19:41:25.413Z,6.90
2022-09-06T19:43:54.126Z,7.05
2022-09-06T19:46:21.291Z,6.40
2022-09-06T19:48:50.130Z,6.35
2022-09-06T19:51:18.430Z,6.32
2022-09-06T19:53:49.663Z,5.75
2022-09-06T19:56:18.370Z,5.97
2022-09-06T19:58:45.489Z,5.93
2022-09-06T20:01:17.810Z,6.20
2022-09-06T20:03:44.678Z,6.28
2022-09-06T20:06:12.155Z,6.70
2022-09-06T20:08:39.409Z,6.88
2022-09-06T20:11:07.837Z,6.60
2022-09-06T20:13:36.435Z,6.57
2022-09-06T20:16:07.490Z,6.13
2022-09-06T20:21:02.400Z,7.05
2022-09-06T20:23:30.016Z,7.47
2022-09-06T20:26:05.262Z,7.30
2022-09-06T20:28:32.966Z,7.32
2022-09-06T20:31:02.194Z,7.43
2022-09-06T20:33:29.827Z,7.38
2022-09-06T20:35:57.350Z,7.85
2022-09-06T20:38:25.253Z,7.70
2022-09-06T20:41:08.260Z,7.70
2022-09-06T20:43:39.102Z,8.25
2022-09-06T20:46:17.379Z,8.38
2022-09-06T20:48:45.326Z,8.57
2022-09-06T20:51:19.031Z,9.10
2022-09-06T20:53:48.182Z,9.35
2022-09-06T20:56:20.768Z,9.35
2022-09-06T20:59:01.534Z,9.10
2022-09-06T21:01:34.627Z,9.43
2022-09-06T21:04:03.225Z,9.15
2022-09-06T21:06:33.623Z,9.18
2022-09-06T21:09:00.172Z,9.25
2022-09-06T21:11:26.808Z,8.82
2022-09-06T21:13:58.468Z,8.95
2022-09-06T21:16:28.107Z,9.63
2022-09-06T21:18:59.998Z,9.35
2022-09-06T21:21:27.854Z,9.38
2022-09-06T21:23:54.574Z,9.38
2022-09-06T21:26:22.244Z,9.85
2022-09-06T21:28:49.575Z,9.57
2022-09-06T21:31:19.710Z,9.85
2022-09-06T21:33:48.755Z,10.52
2022-09-06T21:36:17.491Z,9.88
2022-09-06T21:38:46.604Z,9.13
2022-09-06T21:41:14.716Z,9.38
2022-09-06T21:43:41.631Z,9.57
2022-09-06T21:46:12.990Z,9.18
2022-09-06T21:48:44.971Z,9.82
2022-09-06T21:51:14.099Z,9.13
2022-09-06T21:53:42.211Z,8.95
2022-09-06T21:56:08.915Z,8.45
2022-09-06T21:58:35.811Z,8.52
2022-09-06T22:01:03.674Z,8.55
2022-09-06T22:03:41.143Z,9.10
2022-09-06T22:06:09.840Z,8.48
2022-09-06T22:08:36.358Z,9.27
2022-09-06T22:11:18.257Z,9.85
2022-09-06T22:13:45.604Z,10.38
2022-09-06T22:16:13.530Z,11.40
2022-09-06T22:18:40.196Z,11.88
2022-09-06T22:21:12.287Z,13.13
2022-09-06T22:23:39.369Z,13.98
2022-09-06T22:26:08.577Z,13.70
2022-09-06T22:28:35.175Z,13.88
2022-09-06T22:31:02.027Z,14.15
2022-09-06T22:33:28.795Z,13.40
2022-09-06T22:35:55.371Z,13.20
2022-09-06T22:38:21.983Z,13.27
2022-09-06T22:40:48.666Z,13.50
2022-09-06T22:43:15.366Z,13.38
2022-09-06T22:45:49.826Z,13.80
2022-09-06T22:48:18.280Z,10.43
2022-09-06T22:50:45.030Z,8.80
2022-09-06T22:53:12.024Z,8.60
2022-09-06T22:55:38.774Z,9.02
2022-09-06T22:58:06.079Z,9.18
2022-09-06T23:00:35.965Z,8.90
2022-09-06T23:03:02.578Z,8.98
2022-09-06T23:05:30.864Z,9.75
2022-09-06T23:07:57.872Z,9.80
2022-09-06T23:10:24.379Z,9.48
2022-09-06T23:12:54.054Z,9.70
2022-09-06T23:15:20.607Z,9.80
2022-09-06T23:17:47.108Z,9.30
2022-09-06T23:20:14.143Z,10.02
2022-09-06T23:22:40.912Z,8.40
2022-09-06T23:25:08.622Z,7.55
2022-09-06T23:27:35.164Z,7.50
2022-09-06T23:30:03.298Z,7.28
2022-09-06T23:32:32.639Z,7.20
2022-09-06T23:34:59.280Z,7.25
2022-09-06T23:37:25.790Z,6.78
2022-09-06T23:39:52.576Z,6.80
2022-09-06T23:42:19.352Z,7.10
2022-09-06T23:44:45.862Z,6.93
2022-09-06T23:47:12.377Z,6.35
2022-09-06T23:49:38.879Z,6.78
2022-09-06T23:52:05.596Z,6.05
2022-09-06T23:54:32.097Z,6.15
2022-09-06T23:56:58.605Z,6.05
2022-09-06T23:59:25.109Z,6.30
